Time;durP1;ratioP1;P1;durP2;ratioP2;P2;SDS_P1;SDS_P2;PMS_P1;PMS_P2;Temp;Humidity;BMP_temperature;BMP_pressure;BME280_temperature;BME280_humidity;BME280_pressure;Samples;Min_cycle;Max_cycle;Signal;HPM_P1;HPM_P2
2022/11/17 00:00:23;;;;;;;29.05;17.48;;;8.50;99.90;;;;;;5113900;27;20044;-47
2022/11/17 00:02:49;;;;;;;24.73;16.67;;;8.50;99.90;;;;;;5113586;27;20034;-47
2022/11/17 00:05:15;;;;;;;29.33;18.27;;;8.50;99.90;;;;;;5114405;27;20031;-49
2022/11/17 00:07:43;;;;;;;25.75;16.60;;;8.50;99.90;;;;;;5111273;28;20547;-46
2022/11/17 00:10:09;;;;;;;31.85;17.80;;;8.60;99.90;;;;;;5112665;27;20497;-50
2022/11/17 00:15:19;;;;;;;25.92;17.52;;;8.50;99.90;;;;;;5112930;27;20054;-46
2022/11/17 00:17:47;;;;;;;26.17;16.95;;;8.70;99.90;;;;;;5111084;28;20382;-49
2022/11/17 00:22:58;;;;;;;28.73;17.92;;;8.70;99.90;;;;;;5112289;27;20055;-48
2022/11/17 00:25:24;;;;;;;25.60;17.90;;;8.50;99.90;;;;;;5112234;28;20494;-47
2022/11/17 00:27:50;;;;;;;26.48;16.45;;;8.80;99.90;;;;;;5113194;27;21323;-49
2022/11/17 00:35:53;;;;;;;27.75;17.08;;;8.80;99.90;;;;;;5112982;27;20134;-50
2022/11/17 00:38:19;;;;;;;24.95;16.90;;;8.80;99.90;;;;;;5093625;28;20055;-48
2022/11/17 00:40:44;;;;;;;28.23;17.30;;;8.90;99.90;;;;;;5111762;28;20039;-46
2022/11/17 00:43:10;;;;;;;25.17;16.50;;;8.70;99.90;;;;;;5112866;27;20040;-49
2022/11/17 00:45:36;;;;;;;22.25;15.82;;;8.80;99.90;;;;;;5114241;27;20040;-50
2022/11/17 00:48:02;;;;;;;22.80;16.10;;;8.80;99.90;;;;;;5108793;28;20115;-47
2022/11/17 00:50:28;;;;;;;24.35;16.75;;;8.80;99.90;;;;;;5112566;27;20032;-47
2022/11/17 00:52:54;;;;;;;23.13;15.27;;;9.00;99.90;;;;;;5112781;27;20039;-50
2022/11/17 00:55:19;;;;;;;20.80;14.90;;;8.80;99.90;;;;;;5111642;28;20040;-50
2022/11/17 00:57:45;;;;;;;22.17;14.68;;;8.80;99.90;;;;;;5111683;27;20047;-46
2022/11/17 01:00:11;;;;;;;21.25;14.88;;;8.90;99.90;;;;;;5093093;28;20061;-48
2022/11/17 01:02:37;;;;;;;23.40;14.20;;;9.00;99.90;;;;;;5110097;28;20039;-46
2022/11/17 01:05:02;;;;;;;23.30;15.77;;;9.00;99.90;;;;;;5112631;28;21331;-47
2022/11/17 01:07:28;;;;;;;26.30;15.90;;;8.80;99.90;;;;;;5112685;27;20043;-46
2022/11/17 01:09:54;;;;;;;22.25;15.25;;;9.00;99.90;;;;;;5113546;27;20509;-46
2022/11/17 01:12:19;;;;;;;30.55;15.85;;;9.10;99.90;;;;;;5112354;27;20043;-47
2022/11/17 01:14:45;;;;;;;22.92;15.70;;;8.90;99.90;;;;;;5112487;27;20043;-48
2022/11/17 01:17:11;;;;;;;22.15;15.25;;;9.00;99.90;;;;;;5093361;28;20036;-48
2022/11/17 01:19:37;;;;;;;20.15;13.98;;;9.00;99.90;;;;;;5112041;27;20445;-47
2022/11/17 01:22:02;;;;;;;22.90;15.63;;;9.00;99.90;;;;;;5112326;27;20082;-47
2022/11/17 01:24:28;;;;;;;23.13;14.77;;;8.90;99.90;;;;;;5111805;27;20028;-46
2022/11/17 01:26:54;;;;;;;22.75;14.40;;;8.80;99.90;;;;;;5112489;27;20031;-50
2022/11/17 01:29:20;;;;;;;21.55;14.75;;;8.90;99.90;;;;;;5110862;28;20058;-46
2022/11/17 01:31:50;;;;;;;22.67;14.50;;;8.90;99.90;;;;;;5111142;27;20031;-46
2022/11/17 01:34:16;;;;;;;23.17;15.32;;;9.00;99.90;;;;;;5110197;28;20118;-46
2022/11/17 01:39:28;;;;;;;23.48;14.88;;;9.10;99.90;;;;;;5109434;28;20038;-50
2022/11/17 01:41:55;;;;;;;21.95;14.57;;;9.00;99.90;;;;;;5112319;27;20036;-48
2022/11/17 01:44:52;;;;;;;24.92;15.57;;;8.80;99.90;;;;;;5094913;28;20043;-48
2022/11/17 01:47:41;;;;;;;22.85;15.02;;;8.80;99.90;;;;;;5111837;28;20082;-47
2022/11/17 01:50:24;;;;;;;23.23;14.25;;;8.80;99.90;;;;;;5110729;28;20042;-48
2022/11/17 01:52:52;;;;;;;26.50;15.50;;;9.00;99.90;;;;;;5110848;28;20039;-48
2022/11/17 01:55:20;;;;;;;28.13;15.43;;;8.70;99.90;;;;;;5110993;28;20119;-46
2022/11/17 01:57:53;;;;;;;22.42;15.00;;;8.80;99.90;;;;;;5092999;28;20043;-49
2022/11/17 02:00:19;;;;;;;25.23;14.80;;;8.90;99.90;;;;;;5110273;28;20039;-46
2022/11/17 02:02:46;;;;;;;24.33;15.13;;;8.80;99.90;;;;;;5111847;28;20527;-47
2022/11/17 02:05:21;;;;;;;22.30;15.52;;;8.80;99.90;;;;;;5093752;28;20470;-47
2022/11/17 02:07:49;;;;;;;24.98;15.20;;;9.00;99.90;;;;;;5110486;28;20102;-51
2022/11/17 02:10:15;;;;;;;25.10;16.20;;;8.80;99.90;;;;;;5111435;28;20031;-46
2022/11/17 02:12:42;;;;;;;24.83;16.05;;;8.60;99.90;;;;;;5111420;28;20040;-46
2022/11/17 02:15:08;;;;;;;26.20;16.60;;;8.60;99.90;;;;;;5112550;28;20455;-48
2022/11/17 02:17:40;;;;;;;28.33;17.42;;;8.60;99.90;;;;;;5110879;28;20063;-47
2022/11/17 02:20:38;;;;;;;24.23;16.92;;;8.70;99.90;;;;;;5111765;28;20073;-48
2022/11/17 02:23:23;;;;;;;27.52;15.98;;;8.70;99.90;;;;;;5106900;28;20479;-49
2022/11/17 02:26:12;;;;;;;25.75;17.20;;;8.90;99.90;;;;;;5091282;28;20088;-47
2022/11/17 02:28:45;;;;;;;26.70;17.08;;;8.90;99.90;;;;;;5111235;28;20069;-46
2022/11/17 02:31:23;;;;;;;27.25;17.33;;;8.60;99.90;;;;;;5110850;28;20036;-48
2022/11/17 02:34:07;;;;;;;29.35;17.52;;;8.60;99.90;;;;;;5110700;28;20039;-46
2022/11/17 02:37:00;;;;;;;28.38;17.38;;;8.70;99.90;;;;;;5110617;28;20367;-49
2022/11/17 02:39:32;;;;;;;27.25;16.08;;;8.70;99.90;;;;;;5111185;28;20085;-46
2022/11/17 02:45:21;;;;;;;30.65;16.95;;;8.50;99.90;;;;;;5050170;28;20043;-48
2022/11/17 02:47:52;;;;;;;26.65;17.27;;;8.70;99.90;;;;;;5109403;28;20031;-48
2022/11/17 02:50:20;;;;;;;28.30;18.15;;;8.70;99.90;;;;;;5110454;28;20462;-47
2022/11/17 02:52:46;;;;;;;25.95;17.40;;;8.50;99.90;;;;;;5109903;28;20036;-47
2022/11/17 02:55:13;;;;;;;30.50;17.88;;;8.50;99.90;;;;;;5112526;28;20042;-46
2022/11/17 02:57:40;;;;;;;28.23;17.50;;;9.10;99.90;;;;;;5093094;28;20089;-46
2022/11/17 03:00:11;;;;;;;26.63;16.35;;;8.60;99.90;;;;;;5112102;28;20039;-48
2022/11/17 03:02:39;;;;;;;26.50;16.75;;;8.80;99.90;;;;;;5092541;28;20036;-48
2022/11/17 03:05:24;;;;;;;31.30;17.60;;;8.90;99.90;;;;;;5111401;28;20330;-47
2022/11/17 03:08:08;;;;;;;26.60;16.73;;;8.60;99.90;;;;;;5110268;28;20479;-46
2022/11/17 03:10:55;;;;;;;31.60;16.80;;;8.50;99.90;;;;;;5094307;27;20556;-46
2022/11/17 03:14:00;;;;;;;29.33;16.40;;;8.80;99.90;;;;;;5114392;27;20043;-47
2022/11/17 03:16:57;;;;;;;25.20;15.75;;;8.50;99.90;;;;;;5113229;28;20084;-47
2022/11/17 03:19:36;;;;;;;25.92;15.77;;;8.50;99.90;;;;;;5113639;28;20053;-47
2022/11/17 03:22:16;;;;;;;29.25;16.55;;;8.80;99.90;;;;;;5114743;27;20122;-47
2022/11/17 03:24:54;;;;;;;24.75;16.23;;;8.30;99.90;;;;;;5095134;28;20039;-49
2022/11/17 03:27:24;;;;;;;26.58;16.88;;;8.60;99.90;;;;;;5114626;27;20035;-51
2022/11/17 03:29:54;;;;;;;25.58;16.67;;;8.80;99.90;;;;;;5113887;27;20039;-49
2022/11/17 03:32:22;;;;;;;27.00;16.30;;;8.90;99.90;;;;;;5113532;28;20039;-50
2022/11/17 03:34:56;;;;;;;24.67;16.02;;;8.80;99.90;;;;;;5113272;28;20036;-48
2022/11/17 03:37:24;;;;;;;27.75;16.10;;;8.60;99.90;;;;;;5115163;27;20039;-48
2022/11/17 03:39:53;;;;;;;21.10;14.10;;;8.30;99.90;;;;;;5115267;27;20035;-48
2022/11/17 03:42:32;;;;;;;24.83;14.40;;;8.50;99.90;;;;;;5096318;28;20047;-49
2022/11/17 03:45:25;;;;;;;19.63;13.68;;;8.50;99.90;;;;;;5114108;27;20027;-49
2022/11/17 03:48:06;;;;;;;19.42;12.32;;;8.80;99.90;;;;;;5105706;27;20054;-49
2022/11/17 03:50:47;;;;;;;23.58;14.27;;;8.60;99.90;;;;;;5095073;28;20078;-48
2022/11/17 03:53:13;;;;;;;21.83;12.50;;;8.80;99.90;;;;;;5114470;27;20159;-48
2022/11/17 03:56:02;;;;;;;22.55;14.13;;;8.90;99.90;;;;;;5113729;27;20028;-48
2022/11/17 03:58:31;;;;;;;22.25;14.07;;;8.70;99.90;;;;;;5101795;27;20054;-48
2022/11/17 04:01:00;;;;;;;22.88;14.52;;;9.00;99.90;;;;;;5113282;27;20036;-48
2022/11/17 04:03:31;;;;;;;22.08;13.82;;;8.40;99.90;;;;;;5113036;27;20043;-48
2022/11/17 04:05:56;;;;;;;20.33;13.00;;;8.90;99.90;;;;;;5111676;28;20038;-49
2022/11/17 04:08:24;;;;;;;19.65;12.32;;;8.40;99.90;;;;;;5112698;27;20146;-48
2022/11/17 04:16:19;;;;;;;18.05;11.32;;;8.70;99.90;;;;;;5113999;27;19916;-48
2022/11/17 04:18:44;;;;;;;18.65;12.48;;;8.80;99.90;;;;;;5114385;27;20371;-49
2022/11/17 04:21:10;;;;;;;16.52;11.70;;;9.10;99.90;;;;;;5113510;27;20050;-47
2022/11/17 04:23:36;;;;;;;18.83;11.05;;;8.90;99.90;;;;;;5112719;28;20039;-48
2022/11/17 04:28:49;;;;;;;18.50;9.82;;;9.10;99.90;;;;;;5113045;27;20038;-48
2022/11/17 04:31:15;;;;;;;13.50;9.80;;;8.90;99.90;;;;;;5112566;27;20067;-48
2022/11/17 04:33:43;;;;;;;13.05;8.73;;;9.20;99.90;;;;;;5113062;27;20382;-48
2022/11/17 04:36:11;;;;;;;12.85;9.27;;;9.00;99.90;;;;;;5112629;28;20035;-49
2022/11/17 04:38:40;;;;;;;19.60;10.00;;;8.90;99.90;;;;;;5112575;27;20089;-48
2022/11/17 04:43:52;;;;;;;13.07;9.00;;;9.10;99.90;;;;;;5111997;28;20047;-48
2022/11/17 04:46:19;;;;;;;13.40;10.13;;;9.00;99.90;;;;;;5113481;27;20035;-49
2022/11/17 04:48:46;;;;;;;13.20;10.15;;;9.00;99.90;;;;;;5113075;27;20042;-47
2022/11/17 04:51:13;;;;;;;14.20;9.38;;;9.30;99.90;;;;;;5095879;27;20032;-48
2022/11/17 04:53:38;;;;;;;15.55;9.82;;;9.20;99.90;;;;;;5111271;27;20035;-48
2022/11/17 04:56:05;;;;;;;14.05;9.23;;;8.90;99.90;;;;;;5111834;28;20036;-48
2022/11/17 04:58:30;;;;;;;17.42;9.90;;;8.90;99.90;;;;;;5092806;28;20043;-50
2022/11/17 05:01:11;;;;;;;15.73;9.77;;;9.20;99.90;;;;;;5111799;27;20035;-49
2022/11/17 05:03:41;;;;;;;14.82;9.88;;;9.10;99.90;;;;;;5111426;28;20047;-51
2022/11/17 05:06:09;;;;;;;15.88;9.90;;;9.20;99.90;;;;;;5094808;28;20087;-52
2022/11/17 05:08:36;;;;;;;19.02;10.73;;;9.10;99.90;;;;;;5113634;27;20048;-51
2022/11/17 05:13:49;;;;;;;15.68;11.52;;;8.80;99.90;;;;;;5111210;27;20047;-49
2022/11/17 05:18:59;;;;;;;16.00;11.30;;;8.70;99.90;;;;;;5111603;27;20101;-48
2022/11/17 05:21:25;;;;;;;16.77;10.95;;;8.80;99.90;;;;;;5112306;27;20028;-48
2022/11/17 05:23:53;;;;;;;16.77;10.40;;;8.90;99.90;;;;;;5110995;27;20035;-50
2022/11/17 05:26:21;;;;;;;19.73;11.32;;;9.00;99.90;;;;;;5111943;27;20035;-50
2022/11/17 05:28:48;;;;;;;20.48;12.00;;;9.10;99.90;;;;;;5112324;27;20040;-48
2022/11/17 05:31:14;;;;;;;16.92;10.52;;;8.90;99.90;;;;;;5111887;28;20054;-49
2022/11/17 05:33:40;;;;;;;19.30;11.35;;;8.80;99.90;;;;;;5111198;27;20031;-48
2022/11/17 05:36:06;;;;;;;17.33;10.48;;;9.00;99.90;;;;;;5111266;28;20054;-48
2022/11/17 05:38:32;;;;;;;17.98;10.95;;;9.00;99.90;;;;;;5111832;28;20059;-48
2022/11/17 05:40:57;;;;;;;14.73;9.98;;;9.00;99.90;;;;;;5111089;28;20036;-49
2022/11/17 05:43:23;;;;;;;15.98;10.98;;;8.90;99.90;;;;;;5109986;28;20058;-48
2022/11/17 05:45:49;;;;;;;15.10;9.90;;;8.70;99.90;;;;;;5111885;28;20061;-50
2022/11/17 05:48:14;;;;;;;15.27;10.27;;;9.00;99.90;;;;;;5110590;27;20031;-48
2022/11/17 05:50:40;;;;;;;16.00;10.30;;;8.60;99.90;;;;;;5111563;28;20572;-50
2022/11/17 05:53:06;;;;;;;15.18;10.50;;;8.70;99.90;;;;;;5111179;28;20496;-51
2022/11/17 05:55:32;;;;;;;15.63;10.43;;;8.90;99.90;;;;;;5111495;28;20040;-49
2022/11/17 05:58:03;;;;;;;16.80;10.63;;;8.90;99.90;;;;;;5091986;28;20035;-49
2022/11/17 06:00:30;;;;;;;16.73;10.68;;;8.70;99.90;;;;;;5111105;28;20061;-48
2022/11/17 06:03:02;;;;;;;15.23;10.60;;;8.50;99.90;;;;;;5099847;28;20044;-49
2022/11/17 06:05:28;;;;;;;16.55;10.98;;;8.80;99.90;;;;;;5112224;28;20035;-49
2022/11/17 06:07:56;;;;;;;16.33;10.40;;;8.80;99.90;;;;;;5111812;28;20066;-50
2022/11/17 06:10:22;;;;;;;16.67;11.82;;;8.20;99.90;;;;;;5112582;28;20048;-48
2022/11/17 06:12:48;;;;;;;15.77;10.88;;;8.30;99.90;;;;;;5111825;28;20038;-50
2022/11/17 06:15:13;;;;;;;15.82;11.00;;;8.30;99.90;;;;;;5111772;28;20032;-48
2022/11/17 06:17:53;;;;;;;16.05;11.00;;;8.40;99.90;;;;;;5112011;28;20111;-48
2022/11/17 06:20:28;;;;;;;17.23;11.32;;;8.40;99.90;;;;;;5111376;28;20051;-48
2022/11/17 06:22:56;;;;;;;15.38;11.13;;;8.60;99.90;;;;;;5110784;28;20526;-49
2022/11/17 06:25:23;;;;;;;15.80;11.05;;;8.70;99.90;;;;;;5111148;28;20054;-49
2022/11/17 06:27:50;;;;;;;16.88;10.95;;;8.60;99.90;;;;;;5111768;28;20067;-49
2022/11/17 06:30:16;;;;;;;17.92;11.25;;;8.30;99.90;;;;;;5110602;28;20036;-49
2022/11/17 06:32:42;;;;;;;17.52;11.35;;;8.50;99.90;;;;;;5110685;28;20035;-49
2022/11/17 06:35:10;;;;;;;15.68;11.13;;;8.70;99.90;;;;;;5109425;28;20118;-48
2022/11/17 06:37:36;;;;;;;16.65;12.05;;;8.60;99.90;;;;;;5111352;28;20051;-50
2022/11/17 06:40:03;;;;;;;16.40;12.00;;;8.60;99.90;;;;;;5111811;28;20039;-49
2022/11/17 06:45:13;;;;;;;19.05;13.27;;;8.30;99.90;;;;;;5111914;28;20489;-48
2022/11/17 06:47:39;;;;;;;14.60;11.38;;;8.80;99.90;;;;;;5114303;27;20031;-49
2022/11/17 06:50:06;;;;;;;17.65;11.50;;;8.70;99.90;;;;;;5114319;27;20089;-49
2022/11/17 06:52:32;;;;;;;17.65;12.40;;;8.60;99.90;;;;;;5114448;27;20082;-48
2022/11/17 06:54:57;;;;;;;18.10;12.60;;;8.70;99.90;;;;;;5114373;27;20498;-50
2022/11/17 06:57:23;;;;;;;17.25;12.45;;;8.50;99.90;;;;;;5096028;28;20592;-50
2022/11/17 06:59:51;;;;;;;18.38;12.25;;;8.70;99.90;;;;;;5115354;27;20027;-49
2022/11/17 07:02:17;;;;;;;21.08;13.35;;;8.70;99.90;;;;;;5098154;28;20470;-48
2022/11/17 07:04:42;;;;;;;15.73;11.52;;;8.80;99.90;;;;;;5114721;27;20039;-47
2022/11/17 07:07:08;;;;;;;17.52;12.68;;;8.40;99.90;;;;;;5115955;27;20039;-48
2022/11/17 07:09:34;;;;;;;18.75;11.77;;;8.80;99.90;;;;;;5114519;27;20055;-50
2022/11/17 07:11:59;;;;;;;19.50;12.77;;;8.80;99.90;;;;;;5115110;27;20118;-49
2022/11/17 07:14:25;;;;;;;18.45;12.15;;;9.00;99.90;;;;;;5114293;27;20078;-48
2022/11/17 07:16:51;;;;;;;19.25;12.07;;;8.90;99.90;;;;;;5114399;28;20039;-48
2022/11/17 07:19:16;;;;;;;18.17;12.90;;;8.90;99.90;;;;;;5114295;27;20035;-49
2022/11/17 07:21:42;;;;;;;19.75;13.45;;;8.90;99.90;;;;;;5114205;28;20031;-49
2022/11/17 07:24:08;;;;;;;18.20;12.50;;;8.70;99.90;;;;;;5113963;27;20035;-49
2022/11/17 07:26:33;;;;;;;20.35;13.10;;;8.90;99.90;;;;;;5113400;28;20039;-50
2022/11/17 07:29:00;;;;;;;18.70;13.00;;;8.80;99.90;;;;;;5113623;28;20126;-49
2022/11/17 07:31:25;;;;;;;18.42;13.10;;;8.70;99.90;;;;;;5113370;28;20039;-49
2022/11/17 07:33:52;;;;;;;19.52;13.50;;;8.60;99.90;;;;;;5114773;27;20084;-48
2022/11/17 07:36:18;;;;;;;18.10;13.68;;;8.50;99.90;;;;;;5114647;28;20502;-48
2022/11/17 07:38:44;;;;;;;20.42;14.20;;;8.40;99.90;;;;;;5115604;27;20084;-51
2022/11/17 07:41:12;;;;;;;19.77;13.23;;;8.70;99.90;;;;;;5114420;27;20046;-49
2022/11/17 07:43:38;;;;;;;21.00;14.45;;;8.20;99.90;;;;;;5115121;27;20065;-48
2022/11/17 07:46:09;;;;;;;20.95;14.40;;;8.60;99.90;;;;;;5114389;27;20394;-48
2022/11/17 07:48:34;;;;;;;20.05;14.95;;;8.50;99.90;;;;;;5113749;27;20111;-48
2022/11/17 07:51:02;;;;;;;20.00;14.50;;;9.00;99.90;;;;;;5113037;28;20529;-47
2022/11/17 07:53:28;;;;;;;20.10;14.52;;;8.40;99.90;;;;;;5112997;27;20040;-48
2022/11/17 07:55:54;;;;;;;23.10;14.68;;;8.70;99.90;;;;;;5112822;28;20036;-52
2022/11/17 07:58:20;;;;;;;24.05;15.15;;;8.60;99.90;;;;;;5110438;28;20047;-50
2022/11/17 08:00:45;;;;;;;22.30;14.98;;;8.50;99.90;;;;;;5115478;27;20547;-54
2022/11/17 08:03:11;;;;;;;21.40;15.07;;;9.10;99.90;;;;;;5113975;27;20537;-50
2022/11/17 08:05:38;;;;;;;24.92;15.75;;;8.60;99.90;;;;;;5114847;27;20077;-49
2022/11/17 08:08:04;;;;;;;22.23;15.23;;;8.50;99.90;;;;;;5095487;28;20054;-51
2022/11/17 08:10:31;;;;;;;21.25;15.13;;;8.90;99.90;;;;;;5114301;27;20047;-50
2022/11/17 08:13:00;;;;;;;22.58;15.25;;;8.60;99.90;;;;;;5112127;27;20039;-50
2022/11/17 08:15:28;;;;;;;23.27;14.88;;;8.40;99.90;;;;;;5112971;28;20035;-49
2022/11/17 08:17:55;;;;;;;21.65;14.82;;;8.80;99.90;;;;;;5113551;27;20039;-50
2022/11/17 08:20:22;;;;;;;21.42;14.23;;;8.70;99.90;;;;;;5112883;27;20054;-51
2022/11/17 08:22:51;;;;;;;20.73;13.77;;;8.60;99.90;;;;;;5112904;27;20059;-49
2022/11/17 08:25:22;;;;;;;23.92;14.40;;;8.50;99.90;;;;;;5111482;27;20360;-49
2022/11/17 08:27:50;;;;;;;20.95;14.10;;;9.10;99.90;;;;;;5112673;28;20580;-48
2022/11/17 08:30:18;;;;;;;21.33;13.82;;;8.60;99.90;;;;;;5112510;28;20040;-49
2022/11/17 08:32:51;;;;;;;22.83;14.55;;;9.00;99.90;;;;;;5096922;27;20358;-48
2022/11/17 08:35:18;;;;;;;21.00;13.68;;;8.50;99.90;;;;;;5112403;27;20391;-48
2022/11/17 08:37:44;;;;;;;21.15;13.85;;;9.50;99.90;;;;;;5114334;27;20047;-50
2022/11/17 08:40:11;;;;;;;18.67;13.50;;;9.10;99.90;;;;;;5113246;27;20051;-49
2022/11/17 08:42:37;;;;;;;21.25;13.63;;;8.80;99.90;;;;;;5113119;27;20031;-50
2022/11/17 08:45:04;;;;;;;19.35;13.18;;;9.20;99.90;;;;;;5111884;28;20074;-49
2022/11/17 08:47:30;;;;;;;17.98;13.10;;;8.70;99.90;;;;;;5111887;28;20498;-49
2022/11/17 08:49:56;;;;;;;19.73;12.15;;;9.20;99.90;;;;;;5112851;27;20034;-49
2022/11/17 08:52:22;;;;;;;17.70;11.50;;;9.30;99.90;;;;;;5111577;28;20043;-49
2022/11/17 08:54:49;;;;;;;18.20;12.00;;;9.20;99.90;;;;;;5093764;28;20138;-49
2022/11/17 08:57:15;;;;;;;17.52;11.55;;;9.40;99.90;;;;;;5111754;28;20047;-48
2022/11/17 08:59:41;;;;;;;21.15;11.90;;;9.30;99.90;;;;;;5111765;28;20031;-49
2022/11/17 09:02:06;;;;;;;17.05;11.75;;;8.90;99.90;;;;;;5111416;28;20126;-48
2022/11/17 09:04:32;;;;;;;17.80;12.13;;;9.10;99.90;;;;;;5112359;27;20042;-48
2022/11/17 09:06:58;;;;;;;18.95;11.27;;;9.00;99.90;;;;;;5112755;27;20035;-52
2022/11/17 09:09:23;;;;;;;19.23;11.07;;;9.30;99.90;;;;;;5092591;28;20126;-51
2022/11/17 09:11:49;;;;;;;18.48;11.77;;;9.00;99.90;;;;;;5111948;27;20036;-52
2022/11/17 09:14:15;;;;;;;18.75;11.55;;;9.00;99.90;;;;;;5112080;27;20108;-53
2022/11/17 09:16:40;;;;;;;15.48;11.07;;;9.10;99.90;;;;;;5111765;28;20470;-52
2022/11/17 09:19:06;;;;;;;16.70;11.27;;;9.30;99.90;;;;;;5111068;28;20036;-49
2022/11/17 09:21:32;;;;;;;17.90;11.80;;;9.10;99.90;;;;;;5093006;28;20027;-50
2022/11/17 09:23:58;;;;;;;19.35;12.10;;;9.20;99.90;;;;;;5112643;27;20039;-50
2022/11/17 09:26:24;;;;;;;15.95;10.63;;;9.20;99.90;;;;;;5111107;28;20443;-50
2022/11/17 09:28:50;;;;;;;19.25;12.43;;;9.40;99.90;;;;;;5093612;28;21428;-51
2022/11/17 09:31:18;;;;;;;19.92;11.80;;;9.30;99.90;;;;;;5110568;27;20371;-49
2022/11/17 09:33:44;;;;;;;17.98;12.52;;;9.40;99.90;;;;;;5111910;28;20043;-49
2022/11/17 09:36:13;;;;;;;17.95;12.38;;;9.60;99.90;;;;;;5111350;27;20078;-51
2022/11/17 09:38:40;;;;;;;16.20;10.30;;;9.40;99.90;;;;;;5111154;28;20039;-48
2022/11/17 09:41:14;;;;;;;17.88;11.00;;;9.40;99.90;;;;;;5111087;28;20603;-51
2022/11/17 09:43:44;;;;;;;17.95;11.93;;;9.50;99.90;;;;;;5111074;27;20040;-48
2022/11/17 09:46:27;;;;;;;17.02;12.25;;;9.60;99.90;;;;;;5111024;27;20039;-51
2022/11/17 09:49:01;;;;;;;16.27;11.38;;;9.20;99.90;;;;;;5110762;28;20032;-49
2022/11/17 09:51:30;;;;;;;16.45;11.45;;;9.60;99.90;;;;;;5111177;28;20108;-49
2022/11/17 09:54:11;;;;;;;15.05;11.27;;;9.50;99.90;;;;;;5113606;28;20112;-49
2022/11/17 09:56:38;;;;;;;19.65;11.63;;;9.20;99.90;;;;;;5112102;28;20509;-49
2022/11/17 09:59:10;;;;;;;17.00;11.88;;;9.10;99.90;;;;;;5112819;28;20046;-52
2022/11/17 10:01:37;;;;;;;15.57;10.85;;;9.60;99.90;;;;;;5112071;28;20039;-50
2022/11/17 10:04:10;;;;;;;16.80;12.20;;;9.70;99.90;;;;;;5111341;28;20164;-48
2022/11/17 10:06:36;;;;;;;17.65;11.25;;;9.70;99.90;;;;;;5112599;28;20028;-48
2022/11/17 10:09:32;;;;;;;15.55;10.65;;;9.60;99.90;;;;;;5093207;28;20394;-52
2022/11/17 10:12:16;;;;;;;18.08;11.85;;;9.40;99.90;;;;;;5111114;28;20039;-50
2022/11/17 10:14:42;;;;;;;15.05;11.18;;;9.30;99.90;;;;;;5111814;28;20082;-52
2022/11/17 10:17:09;;;;;;;14.57;11.15;;;9.60;99.90;;;;;;5110837;28;20039;-48
2022/11/17 10:19:37;;;;;;;14.98;11.27;;;9.70;99.90;;;;;;5091921;28;20048;-49
2022/11/17 10:22:02;;;;;;;14.45;11.23;;;9.80;99.90;;;;;;5113334;28;20093;-49
2022/11/17 10:24:40;;;;;;;17.35;10.80;;;9.40;99.90;;;;;;5115094;27;20035;-51
2022/11/17 10:27:28;;;;;;;14.95;9.98;;;10.00;99.90;;;;;;5113516;28;20104;-49
2022/11/17 10:29:58;;;;;;;13.80;10.13;;;10.00;99.90;;;;;;5117522;27;20040;-49
2022/11/17 10:32:25;;;;;;;13.38;7.53;;;9.50;99.90;;;;;;5097474;28;20133;-51
2022/11/17 10:34:51;;;;;;;11.98;5.97;;;10.10;99.90;;;;;;5115978;27;20386;-49
2022/11/17 10:37:19;;;;;;;8.52;5.05;;;10.20;99.90;;;;;;5114055;27;20065;-48
2022/11/17 10:39:45;;;;;;;10.52;4.70;;;9.70;99.90;;;;;;5115300;27;20118;-51
2022/11/17 10:42:29;;;;;;;9.45;5.20;;;9.80;99.90;;;;;;5116135;27;20541;-50
2022/11/17 10:44:59;;;;;;;7.28;4.03;;;10.10;99.90;;;;;;5102510;27;20505;-52
2022/11/17 10:47:28;;;;;;;8.90;2.85;;;10.30;99.90;;;;;;5108174;27;20043;-48
2022/11/17 10:50:19;;;;;;;6.47;2.17;;;9.90;99.90;;;;;;5092495;28;20039;-48
2022/11/17 10:52:46;;;;;;;7.07;2.00;;;10.00;99.90;;;;;;5113114;28;20463;-48
2022/11/17 10:55:32;;;;;;;11.40;2.20;;;9.80;99.90;;;;;;5113145;28;20044;-47
2022/11/17 10:58:17;;;;;;;5.85;1.98;;;10.30;99.90;;;;;;5112435;28;20043;-51
2022/11/17 11:00:43;;;;;;;;;;;9.80;99.90;;;;;;5114360;28;20452;-53
2022/11/17 11:03:15;;;;;;;7.28;2.28;;;10.20;99.90;;;;;;5080330;28;19920;-47
2022/11/17 11:05:57;;;;;;;6.38;1.85;;;9.90;99.90;;;;;;5113592;27;20047;-47
2022/11/17 11:08:33;;;;;;;7.93;2.20;;;9.90;99.90;;;;;;5093942;27;20054;-46
2022/11/17 11:11:01;;;;;;;6.40;1.60;;;9.80;99.90;;;;;;5113695;27;20145;-47
2022/11/17 11:14:06;;;;;;;4.40;1.58;;;10.20;99.90;;;;;;5109620;28;20044;-48
2022/11/17 11:16:32;;;;;;;6.75;1.88;;;9.90;99.90;;;;;;5096710;28;20051;-47
2022/11/17 11:18:58;;;;;;;7.68;2.08;;;10.00;99.90;;;;;;5104525;27;20101;-49
2022/11/17 11:21:36;;;;;;;3.58;1.50;;;10.40;99.90;;;;;;5104996;27;20032;-46
2022/11/17 11:24:12;;;;;;;6.75;1.83;;;10.40;99.90;;;;;;5105134;27;20091;-47
2022/11/17 11:26:40;;;;;;;4.70;1.50;;;10.20;99.90;;;;;;5104488;27;20028;-48
2022/11/17 11:29:18;;;;;;;4.28;1.65;;;10.30;99.90;;;;;;5105002;27;20032;-47
2022/11/17 11:31:46;;;;;;;3.97;1.58;;;9.90;99.90;;;;;;5103252;28;20086;-47
2022/11/17 11:34:56;;;;;;;7.32;1.77;;;10.00;99.90;;;;;;5104171;27;20062;-48
2022/11/17 11:37:32;;;;;;;3.40;1.20;;;10.00;99.90;;;;;;4994513;28;20413;-49
2022/11/17 11:40:14;;;;;;;5.20;1.23;;;10.40;99.90;;;;;;5097444;28;20036;-46
2022/11/17 11:42:57;;;;;;;3.55;1.35;;;10.30;99.90;;;;;;5093936;28;20094;-49
2022/11/17 11:45:32;;;;;;;5.07;1.30;;;10.10;99.90;;;;;;5095495;28;20059;-47
2022/11/17 11:48:12;;;;;;;7.07;1.60;;;10.20;99.90;;;;;;5091270;28;20040;-48
2022/11/17 11:50:55;;;;;;;4.68;1.27;;;10.10;99.90;;;;;;5093941;28;20539;-47
2022/11/17 11:53:42;;;;;;;5.05;1.58;;;10.30;99.90;;;;;;5078242;28;20037;-48
2022/11/17 11:56:11;;;;;;;6.20;1.60;;;10.00;99.90;;;;;;5094387;28;20527;-48
2022/11/17 11:58:42;;;;;;;6.78;1.20;;;10.10;99.90;;;;;;5074403;28;20062;-45
2022/11/17 12:01:10;;;;;;;4.85;1.35;;;10.00;99.90;;;;;;5092636;28;20048;-47
2022/11/17 12:03:53;;;;;;;4.13;1.35;;;10.30;99.90;;;;;;5073389;28;20391;-48
2022/11/17 12:06:40;;;;;;;6.80;1.08;;;10.20;99.90;;;;;;5091067;28;20032;-46
2022/11/17 12:09:09;;;;;;;5.68;1.63;;;9.90;99.90;;;;;;5093486;28;20112;-48
2022/11/17 12:14:23;;;;;;;6.70;1.70;;;9.90;99.90;;;;;;5093616;28;21193;-50
2022/11/17 12:16:58;;;;;;;7.68;1.52;;;10.20;99.90;;;;;;5093655;28;20389;-46
2022/11/17 12:19:43;;;;;;;8.25;1.70;;;10.00;99.90;;;;;;5087746;28;20565;-48
2022/11/17 12:22:23;;;;;;;6.68;2.38;;;10.20;99.90;;;;;;5093336;28;20143;-46
2022/11/17 12:24:56;;;;;;;6.47;1.70;;;10.60;99.90;;;;;;5092305;28;20077;-47
2022/11/17 12:27:34;;;;;;;7.78;1.70;;;10.30;99.90;;;;;;5093649;28;20059;-48
2022/11/17 12:30:01;;;;;;;6.30;1.58;;;10.00;99.90;;;;;;5093442;28;20035;-44
2022/11/17 12:32:50;;;;;;;5.65;1.70;;;10.00;99.90;;;;;;5089629;28;20036;-45
2022/11/17 12:35:25;;;;;;;7.38;2.28;;;10.10;99.90;;;;;;5093991;28;20043;-44
2022/11/17 12:38:13;;;;;;;8.27;1.98;;;9.90;99.90;;;;;;5092998;28;20557;-48
2022/11/17 12:40:38;;;;;;;7.70;1.80;;;10.30;99.90;;;;;;5091430;28;20040;-47
2022/11/17 12:43:24;;;;;;;5.05;1.98;;;10.00;99.90;;;;;;5091467;28;20046;-49
2022/11/17 12:46:07;;;;;;;8.82;2.00;;;9.80;99.90;;;;;;5094483;28;20028;-47
2022/11/17 12:48:37;;;;;;;6.05;2.17;;;9.90;99.90;;;;;;5077012;28;20095;-49
2022/11/17 12:51:22;;;;;;;5.05;1.52;;;10.20;99.90;;;;;;5093420;28;20111;-50
2022/11/17 12:53:50;;;;;;;6.45;1.95;;;10.20;99.90;;;;;;5072897;28;20097;-48
2022/11/17 12:56:53;;;;;;;7.55;2.05;;;9.90;99.90;;;;;;5091241;28;20037;-47
2022/11/17 12:59:32;;;;;;;8.40;2.10;;;10.20;99.90;;;;;;5093084;28;20050;-47
2022/11/17 13:02:17;;;;;;;9.45;2.10;;;9.80;99.90;;;;;;5093692;28;20039;-46
2022/11/17 13:05:00;;;;;;;9.10;2.47;;;9.80;99.90;;;;;;5092130;28;20346;-49
2022/11/17 13:07:26;;;;;;;8.07;2.92;;;10.00;99.90;;;;;;5090526;28;20098;-49
2022/11/17 13:09:55;;;;;;;8.30;2.50;;;10.00;99.90;;;;;;5091646;28;20143;-47
2022/11/17 13:12:26;;;;;;;8.38;2.58;;;10.10;99.90;;;;;;5094837;28;20048;-48
2022/11/17 13:14:56;;;;;;;8.93;2.10;;;10.20;99.90;;;;;;5090505;28;20423;-48
2022/11/17 13:17:26;;;;;;;8.35;2.17;;;9.90;99.90;;;;;;5089790;28;20547;-46
2022/11/17 13:20:25;;;;;;;8.15;2.45;;;10.00;99.90;;;;;;5090999;28;20096;-48
2022/11/17 13:23:03;;;;;;;6.15;2.45;;;10.30;99.90;;;;;;5091421;28;20383;-46
2022/11/17 13:25:29;;;;;;;6.75;2.05;;;10.20;99.90;;;;;;5089802;28;20036;-49
2022/11/17 13:27:55;;;;;;;5.85;1.90;;;10.40;99.90;;;;;;5090629;28;20031;-48
2022/11/17 13:30:27;;;;;;;4.93;1.70;;;10.00;99.90;;;;;;5093113;28;20123;-45
2022/11/17 13:32:54;;;;;;;7.05;2.10;;;10.00;99.90;;;;;;5094917;28;20502;-48
2022/11/17 13:35:26;;;;;;;6.65;2.22;;;10.20;99.90;;;;;;5094137;28;20044;-48
2022/11/17 13:38:14;;;;;;;8.20;2.20;;;10.30;99.90;;;;;;5089990;28;20051;-46